createdAt,value
2019-01-23T00:00:19.632Z,964.69
2019-01-23T00:01:19.539Z,964.69
2019-01-23T00:02:19.457Z,964.66
2019-01-23T00:03:19.359Z,964.70
2019-01-23T00:04:19.267Z,964.67
2019-01-23T00:05:19.173Z,964.70
2019-01-23T00:06:19.083Z,964.69
2019-01-23T00:07:18.999Z,964.68
2019-01-23T00:08:18.905Z,964.64
2019-01-23T00:09:18.810Z,964.66
2019-01-23T00:10:18.727Z,964.68
2019-01-23T00:11:18.633Z,964.66
2019-01-23T00:12:18.536Z,964.63
2019-01-23T00:13:18.451Z,964.64
2019-01-23T00:14:18.359Z,964.62
2019-01-23T00:15:18.269Z,964.60
2019-01-23T00:16:18.183Z,964.61
2019-01-23T00:17:18.080Z,964.60
2019-01-23T00:18:17.995Z,964.56
2019-01-23T00:19:17.899Z,964.54
2019-01-23T00:20:17.814Z,964.55
2019-01-23T00:21:17.715Z,964.53
2019-01-23T00:22:17.631Z,964.53
2019-01-23T00:23:17.535Z,964.52
2019-01-23T00:24:17.444Z,964.50
2019-01-23T00:25:17.352Z,964.48
2019-01-23T00:26:17.263Z,964.48
2019-01-23T00:27:17.169Z,964.49
2019-01-23T00:28:17.079Z,964.50
2019-01-23T00:29:16.993Z,964.43
2019-01-23T00:30:16.900Z,964.43
2019-01-23T00:31:16.813Z,964.46
2019-01-23T00:32:16.713Z,964.43
2019-01-23T00:33:16.629Z,964.40
2019-01-23T00:34:16.539Z,964.38
2019-01-23T00:35:16.440Z,964.34
2019-01-23T00:36:16.353Z,964.34
2019-01-23T00:37:16.259Z,964.36
2019-01-23T00:38:16.167Z,964.34
2019-01-23T00:39:16.089Z,964.36
2019-01-23T00:40:15.987Z,964.32
2019-01-23T00:41:15.899Z,964.36
2019-01-23T00:42:15.808Z,964.34
2019-01-23T00:43:15.711Z,964.34
2019-01-23T00:44:15.626Z,964.31
2019-01-23T00:45:15.527Z,964.33
2019-01-23T00:46:15.438Z,964.31
2019-01-23T00:47:15.347Z,964.35
2019-01-23T00:48:15.255Z,964.35
2019-01-23T00:49:15.173Z,964.35
2019-01-23T00:50:15.082Z,964.29
2019-01-23T00:51:14.981Z,964.31
2019-01-23T00:52:14.891Z,964.25
2019-01-23T00:53:14.797Z,964.25
2019-01-23T00:54:14.734Z,964.25
2019-01-23T00:55:14.626Z,964.27
2019-01-23T00:56:14.539Z,964.24
2019-01-23T00:57:14.442Z,964.23
2019-01-23T00:58:14.347Z,964.21
2019-01-23T00:59:14.274Z,964.21
2019-01-23T01:00:14.170Z,964.17
2019-01-23T01:01:14.073Z,964.19
2019-01-23T01:02:13.986Z,964.20
2019-01-23T01:03:13.896Z,964.15
2019-01-23T01:04:13.798Z,964.14
2019-01-23T01:05:13.710Z,964.11
2019-01-23T01:06:13.613Z,964.10
2019-01-23T01:07:13.533Z,964.12
2019-01-23T01:08:13.433Z,964.13
2019-01-23T01:09:13.342Z,964.13
2019-01-23T01:10:13.250Z,964.13
2019-01-23T01:12:44.699Z,964.10
2019-01-23T01:13:44.565Z,964.09
2019-01-23T01:15:48.352Z,964.07
2019-01-23T01:16:48.261Z,964.10
2019-01-23T01:18:52.134Z,964.12
2019-01-23T01:19:51.991Z,964.12
2019-01-23T01:21:55.798Z,964.11
2019-01-23T01:22:55.704Z,964.11
2019-01-23T01:25:00.039Z,964.10
2019-01-23T01:25:59.884Z,964.08
2019-01-23T01:28:04.198Z,964.11
2019-01-23T01:29:04.059Z,964.06
2019-01-23T01:31:08.335Z,964.04
2019-01-23T01:32:08.240Z,964.03
2019-01-23T01:34:12.551Z,963.98
2019-01-23T01:35:12.422Z,963.96
2019-01-23T01:37:16.679Z,963.93
2019-01-23T01:38:16.590Z,963.89
2019-01-23T01:39:16.491Z,963.85
2019-01-23T01:40:16.422Z,963.91
2019-01-23T01:41:16.318Z,963.89
2019-01-23T01:42:16.219Z,963.87
2019-01-23T01:43:16.134Z,963.85
2019-01-23T01:44:16.035Z,963.84
2019-01-23T01:45:15.948Z,963.85
2019-01-23T01:46:15.865Z,963.86
2019-01-23T01:47:15.769Z,963.83
2019-01-23T01:48:15.677Z,963.80
2019-01-23T01:49:15.587Z,963.80
2019-01-23T01:50:15.528Z,963.75
2019-01-23T01:51:15.400Z,963.74
2019-01-23T01:52:15.320Z,963.71
2019-01-23T01:53:15.218Z,963.69
2019-01-23T01:54:15.128Z,963.65
2019-01-23T01:55:15.045Z,963.66
2019-01-23T01:56:14.956Z,963.64
2019-01-23T01:57:14.862Z,963.65
2019-01-23T01:58:14.771Z,963.61
2019-01-23T01:59:14.674Z,963.61
2019-01-23T02:00:14.580Z,963.58
2019-01-23T02:01:14.488Z,963.55
2019-01-23T02:02:14.410Z,963.54
2019-01-23T02:03:15.686Z,963.57
2019-01-23T02:04:14.215Z,963.50
2019-01-23T02:05:14.133Z,963.52
2019-01-23T02:06:14.043Z,963.51
2019-01-23T02:07:13.949Z,963.49
2019-01-23T02:08:13.865Z,963.49
2019-01-23T02:09:13.761Z,963.47
2019-01-23T02:10:13.671Z,963.42
2019-01-23T02:11:13.579Z,963.43
2019-01-23T02:12:13.486Z,963.42
2019-01-23T02:13:13.399Z,963.37
2019-01-23T02:14:13.307Z,963.35
2019-01-23T02:15:13.212Z,963.32
2019-01-23T02:16:13.121Z,963.33
2019-01-23T02:17:13.033Z,963.29
2019-01-23T02:18:12.941Z,963.27
2019-01-23T02:19:12.849Z,963.26
2019-01-23T02:20:12.758Z,963.26
2019-01-23T02:21:12.670Z,963.24
2019-01-23T02:22:12.577Z,963.16
2019-01-23T02:23:12.497Z,963.21
2019-01-23T02:24:12.396Z,963.16
2019-01-23T02:25:12.306Z,963.21
2019-01-23T02:26:12.214Z,963.16
2019-01-23T02:27:12.121Z,963.19
2019-01-23T02:28:12.030Z,963.16
2019-01-23T02:29:11.938Z,963.16
2019-01-23T02:30:11.851Z,963.16
2019-01-23T02:31:11.757Z,963.14
2019-01-23T02:32:11.668Z,963.14
2019-01-23T02:33:11.579Z,963.12
2019-01-23T02:34:11.484Z,963.08
2019-01-23T02:35:11.394Z,963.08
2019-01-23T02:36:11.312Z,963.09
2019-01-23T02:37:11.209Z,963.08
2019-01-23T02:38:11.121Z,963.06
2019-01-23T02:39:11.029Z,963.06
2019-01-23T02:40:10.938Z,963.05
2019-01-23T02:41:10.856Z,963.04
2019-01-23T02:42:10.759Z,963.04
2019-01-23T02:43:10.669Z,963.02
2019-01-23T02:44:10.577Z,963.00
2019-01-23T02:45:10.486Z,962.98
2019-01-23T02:46:10.402Z,962.97
2019-01-23T02:47:10.331Z,962.92
2019-01-23T02:48:10.212Z,962.89
2019-01-23T02:49:10.120Z,962.87
2019-01-23T02:50:10.030Z,962.88
2019-01-23T02:51:09.937Z,962.86
2019-01-23T02:52:09.861Z,962.85
2019-01-23T02:53:09.755Z,962.91
2019-01-23T02:54:09.665Z,962.88
2019-01-23T02:55:09.574Z,962.85
2019-01-23T02:56:09.481Z,962.90
2019-01-23T02:57:09.391Z,962.87
2019-01-23T02:58:09.299Z,962.87
2019-01-23T02:59:09.208Z,962.83
2019-01-23T03:00:09.120Z,962.81
2019-01-23T03:01:09.028Z,962.85
2019-01-23T03:02:08.935Z,962.83
2019-01-23T03:03:08.844Z,962.79
2019-01-23T03:04:08.753Z,962.80
2019-01-23T03:05:08.664Z,962.80
2019-01-23T03:06:08.577Z,962.76
2019-01-23T03:07:08.479Z,962.74
2019-01-23T03:08:08.391Z,962.72
2019-01-23T03:09:08.310Z,962.73
2019-01-23T03:10:08.210Z,962.68
2019-01-23T03:11:08.119Z,962.73
2019-01-23T03:12:08.026Z,962.69
2019-01-23T03:13:07.938Z,962.65
2019-01-23T03:14:07.857Z,962.62
2019-01-23T03:15:07.757Z,962.66
2019-01-23T03:16:07.664Z,962.60
2019-01-23T03:17:07.571Z,962.60
2019-01-23T03:18:07.478Z,962.63
2019-01-23T03:19:07.395Z,962.57
2019-01-23T03:20:07.298Z,962.60
2019-01-23T03:21:07.206Z,962.60
2019-01-23T03:22:07.116Z,962.64
2019-01-23T03:23:07.024Z,962.62
2019-01-23T03:24:06.937Z,962.61
2019-01-23T03:25:06.841Z,962.59
2019-01-23T03:26:06.751Z,962.59
2019-01-23T03:27:06.659Z,962.57
2019-01-23T03:28:06.571Z,962.62
2019-01-23T03:29:06.487Z,962.56
2019-01-23T03:30:06.388Z,962.57
2019-01-23T03:31:06.294Z,962.58
2019-01-23T03:32:06.209Z,962.55
2019-01-23T03:33:06.116Z,962.57
2019-01-23T03:34:06.036Z,962.56
2019-01-23T03:35:05.933Z,962.56
2019-01-23T03:36:05.842Z,962.52
2019-01-23T03:37:05.753Z,962.50
2019-01-23T03:38:05.658Z,962.54
2019-01-23T03:39:05.566Z,962.58
2019-01-23T03:40:05.480Z,962.50
2019-01-23T03:41:05.390Z,962.49
2019-01-23T03:42:05.293Z,962.47
2019-01-23T03:43:05.206Z,962.44
2019-01-23T03:44:05.112Z,962.43
2019-01-23T03:45:05.435Z,962.39
2019-01-23T03:46:04.930Z,962.38
2019-01-23T03:47:04.838Z,962.39
2019-01-23T03:48:04.748Z,962.35
2019-01-23T03:49:04.657Z,962.33
2019-01-23T03:50:04.566Z,962.30
2019-01-23T03:51:04.478Z,962.32
2019-01-23T03:52:04.391Z,962.30
2019-01-23T03:53:04.291Z,962.27
2019-01-23T03:54:04.201Z,962.31
2019-01-23T03:55:04.109Z,962.32
2019-01-23T03:56:04.019Z,962.29
2019-01-23T03:57:03.934Z,962.30
2019-01-23T03:58:03.838Z,962.28
2019-01-23T03:59:03.743Z,962.30
2019-01-23T04:00:03.653Z,962.25
2019-01-23T04:01:03.587Z,962.22
2019-01-23T04:02:03.476Z,962.20
2019-01-23T04:03:03.378Z,962.17
2019-01-23T04:04:03.287Z,962.18
2019-01-23T04:05:03.196Z,962.17
2019-01-23T04:06:03.105Z,962.11
2019-01-23T04:07:03.026Z,962.13
2019-01-23T04:08:02.921Z,962.13
2019-01-23T04:09:02.832Z,962.10
2019-01-23T04:10:02.742Z,962.11
2019-01-23T04:11:02.647Z,962.12
2019-01-23T04:12:02.559Z,962.09
2019-01-23T04:13:02.467Z,962.12
2019-01-23T04:14:02.376Z,962.14
2019-01-23T04:15:02.298Z,962.13
2019-01-23T04:16:02.194Z,962.10
2019-01-23T04:17:02.099Z,962.11
2019-01-23T04:18:02.013Z,962.12
2019-01-23T04:19:01.921Z,962.09
2019-01-23T04:20:01.837Z,962.06
2019-01-23T04:21:01.735Z,962.01
2019-01-23T04:22:01.649Z,962.04
2019-01-23T04:23:01.553Z,962.04
2019-01-23T04:24:01.468Z,962.05
2019-01-23T04:25:01.371Z,962.01
2019-01-23T04:26:01.283Z,962.02
2019-01-23T04:27:01.187Z,961.99
2019-01-23T04:28:01.098Z,962.01
2019-01-23T04:29:01.005Z,962.03
2019-01-23T04:30:00.927Z,962.05
2019-01-23T04:31:00.826Z,962.07
2019-01-23T04:32:00.733Z,962.05
2019-01-23T04:33:00.682Z,962.07
2019-01-23T04:34:00.552Z,962.05
2019-01-23T04:35:00.459Z,962.07
2019-01-23T04:36:00.367Z,962.08
2019-01-23T04:37:00.278Z,962.04
2019-01-23T04:38:00.185Z,962.04
2019-01-23T04:39:00.094Z,962.06
2019-01-23T04:40:00.005Z,962.03
2019-01-23T04:40:59.912Z,962.00
2019-01-23T04:41:59.822Z,962.00
2019-01-23T04:42:59.734Z,961.99
2019-01-23T04:43:59.645Z,962.01
2019-01-23T04:44:59.554Z,961.99
2019-01-23T04:45:59.458Z,961.96
2019-01-23T04:46:59.367Z,961.94
2019-01-23T04:47:59.274Z,961.91
2019-01-23T04:48:59.183Z,961.93
2019-01-23T04:49:59.093Z,961.91
2019-01-23T04:50:59.001Z,961.87
2019-01-23T04:51:58.910Z,961.92
2019-01-23T04:52:58.825Z,961.89
2019-01-23T04:53:58.727Z,961.88
2019-01-23T04:54:58.634Z,961.86
2019-01-23T04:55:58.542Z,961.82
2019-01-23T04:56:58.453Z,961.80
2019-01-23T04:57:58.370Z,961.80
2019-01-23T04:58:58.271Z,961.81
2019-01-23T04:59:58.179Z,961.80
2019-01-23T05:00:58.087Z,961.80
2019-01-23T05:01:57.999Z,961.88
2019-01-23T05:02:57.914Z,961.87
2019-01-23T05:03:57.813Z,961.88
2019-01-23T05:04:57.722Z,961.85
2019-01-23T05:05:57.630Z,961.87
2019-01-23T05:06:57.541Z,961.80
2019-01-23T05:07:57.453Z,961.78
2019-01-23T05:08:57.360Z,961.79
2019-01-23T05:09:57.268Z,961.83
2019-01-23T05:10:57.173Z,961.77
2019-01-23T05:11:57.084Z,961.82
2019-01-23T05:12:57.008Z,961.79
2019-01-23T05:13:56.913Z,961.80
2019-01-23T05:14:56.813Z,961.76
2019-01-23T05:15:56.726Z,961.80
2019-01-23T05:16:56.629Z,961.77
2019-01-23T05:17:56.535Z,961.78
2019-01-23T05:18:56.442Z,961.76
2019-01-23T05:19:56.352Z,961.77
2019-01-23T05:20:56.265Z,961.71
2019-01-23T05:21:56.178Z,961.68
2019-01-23T05:22:56.082Z,961.67
2019-01-23T05:23:55.987Z,961.67
2019-01-23T05:24:55.900Z,961.65
2019-01-23T05:25:55.804Z,961.69
2019-01-23T05:26:55.714Z,961.66
2019-01-23T05:27:55.624Z,961.65
2019-01-23T05:28:55.542Z,961.66
2019-01-23T05:29:55.440Z,961.66
2019-01-23T05:30:55.347Z,961.68
2019-01-23T05:31:55.258Z,961.62
2019-01-23T05:32:55.166Z,961.62
2019-01-23T05:33:55.088Z,961.59
2019-01-23T05:34:54.984Z,961.61
2019-01-23T05:35:54.898Z,961.60
2019-01-23T05:36:54.801Z,961.59
2019-01-23T05:37:54.709Z,961.56
2019-01-23T05:38:54.621Z,961.59
2019-01-23T05:39:54.529Z,961.58
2019-01-23T05:40:54.450Z,961.56
2019-01-23T05:41:54.355Z,961.61
2019-01-23T05:42:54.255Z,961.58
2019-01-23T05:43:54.161Z,961.62
2019-01-23T05:44:54.078Z,961.55
2019-01-23T05:45:53.977Z,961.55
2019-01-23T05:46:53.886Z,961.57
2019-01-23T05:47:53.798Z,961.54
2019-01-23T05:48:53.707Z,961.51
2019-01-23T05:49:53.614Z,961.49
2019-01-23T05:50:53.525Z,961.49
2019-01-23T05:51:53.435Z,961.47
2019-01-23T05:52:53.339Z,961.48
2019-01-23T05:53:53.249Z,961.45
2019-01-23T05:54:53.157Z,961.46
2019-01-23T05:55:53.092Z,961.44
2019-01-23T05:56:52.975Z,961.39
2019-01-23T05:57:52.884Z,961.41
2019-01-23T05:58:52.792Z,961.40
2019-01-23T05:59:52.700Z,961.41
2019-01-23T06:00:52.661Z,961.42
2019-01-23T06:01:52.520Z,961.35
2019-01-23T06:02:52.425Z,961.37
2019-01-23T06:03:52.335Z,961.37
2019-01-23T06:04:52.242Z,961.36
2019-01-23T06:05:52.155Z,961.38
2019-01-23T06:06:52.059Z,961.34
2019-01-23T06:07:51.968Z,961.38
2019-01-23T06:08:51.876Z,961.37
2019-01-23T06:09:51.785Z,961.37
2019-01-23T06:10:51.694Z,961.35
2019-01-23T06:11:51.603Z,961.36
2019-01-23T06:12:51.509Z,961.41
2019-01-23T06:13:51.458Z,961.40
2019-01-23T06:14:51.332Z,961.39
2019-01-23T06:15:51.235Z,961.41
2019-01-23T06:16:51.149Z,961.40
2019-01-23T06:17:51.053Z,961.43
2019-01-23T06:18:50.984Z,961.45
2019-01-23T06:19:50.874Z,961.44
2019-01-23T06:20:50.778Z,961.44
2019-01-23T06:21:50.694Z,961.40
2019-01-23T06:22:50.595Z,961.46
2019-01-23T06:23:50.512Z,961.41
2019-01-23T06:24:50.413Z,961.42
2019-01-23T06:25:50.323Z,961.42
2019-01-23T06:26:50.227Z,961.39
2019-01-23T06:27:50.137Z,961.42
2019-01-23T06:28:50.050Z,961.44
2019-01-23T06:29:49.975Z,961.41
2019-01-23T06:30:49.861Z,961.41
2019-01-23T06:31:49.771Z,961.41
2019-01-23T06:32:49.678Z,961.39
2019-01-23T06:33:49.596Z,961.37
2019-01-23T06:34:49.494Z,961.34
2019-01-23T06:35:49.403Z,961.31
2019-01-23T06:36:49.319Z,961.30
2019-01-23T06:37:49.221Z,961.34
2019-01-23T06:38:49.128Z,961.32
2019-01-23T06:39:49.036Z,961.29
2019-01-23T06:40:48.948Z,961.33
2019-01-23T06:41:48.855Z,961.28
2019-01-23T06:42:48.763Z,961.29
2019-01-23T06:43:48.675Z,961.30
2019-01-23T06:44:48.578Z,961.25
2019-01-23T06:45:48.487Z,961.26
2019-01-23T06:46:48.413Z,961.24
2019-01-23T06:47:48.304Z,961.27
2019-01-23T06:48:48.212Z,961.25
2019-01-23T06:49:48.121Z,961.25
2019-01-23T06:50:48.029Z,961.22
2019-01-23T06:51:47.946Z,961.25
2019-01-23T06:52:47.846Z,961.22
2019-01-23T06:53:47.756Z,961.25
2019-01-23T06:54:47.668Z,961.26
2019-01-23T06:55:47.573Z,961.20
2019-01-23T06:56:47.498Z,961.21
2019-01-23T06:57:47.388Z,961.19
2019-01-23T06:58:47.295Z,961.16
2019-01-23T06:59:47.205Z,961.21
2019-01-23T07:00:47.112Z,961.20
2019-01-23T07:01:47.027Z,961.19
2019-01-23T07:02:46.931Z,961.17
2019-01-23T07:03:46.838Z,961.19
2019-01-23T07:04:46.746Z,961.17
2019-01-23T07:05:46.656Z,961.23
2019-01-23T07:06:46.568Z,961.16
2019-01-23T07:07:46.472Z,961.14
2019-01-23T07:08:46.381Z,961.16
2019-01-23T07:09:46.289Z,961.17
2019-01-23T07:10:46.199Z,961.17
2019-01-23T07:11:46.117Z,961.14
2019-01-23T07:12:53.662Z,961.17
2019-01-23T07:14:50.348Z,961.15
2019-01-23T07:15:50.207Z,961.17
2019-01-23T07:17:54.503Z,961.14
2019-01-23T07:18:54.406Z,961.17
2019-01-23T07:19:54.319Z,961.12
2019-01-23T07:20:54.226Z,961.14
2019-01-23T07:21:54.132Z,961.12
2019-01-23T07:22:54.043Z,961.09
2019-01-23T07:23:53.952Z,961.13
2019-01-23T07:24:53.858Z,961.10
2019-01-23T07:25:53.777Z,961.09
2019-01-23T07:26:53.676Z,961.12
2019-01-23T07:27:53.584Z,961.07
2019-01-23T07:28:53.490Z,961.03
2019-01-23T07:29:53.402Z,961.05
2019-01-23T07:30:53.308Z,961.04
2019-01-23T07:31:53.215Z,961.07
2019-01-23T07:32:53.129Z,961.04
2019-01-23T07:33:53.033Z,961.05
2019-01-23T07:34:52.961Z,961.07
2019-01-23T07:35:52.850Z,961.04
2019-01-23T07:36:52.760Z,961.04
2019-01-23T07:37:52.668Z,961.08
2019-01-23T07:38:52.575Z,961.01
2019-01-23T07:39:52.499Z,961.06
2019-01-23T07:40:52.394Z,961.01
2019-01-23T07:41:52.300Z,961.05
2019-01-23T07:42:52.216Z,961.01
2019-01-23T07:43:52.119Z,961.03
2019-01-23T07:44:52.027Z,961.00
2019-01-23T07:45:51.938Z,961.01
2019-01-23T07:46:51.846Z,961.06
2019-01-23T07:47:51.757Z,961.04
2019-01-23T07:48:51.663Z,961.07
2019-01-23T07:49:51.579Z,961.04
2019-01-23T07:50:51.483Z,961.03
2019-01-23T07:51:51.391Z,961.03
2019-01-23T07:52:51.295Z,961.00
2019-01-23T07:53:51.309Z,961.04
2019-01-23T07:54:51.112Z,961.01
2019-01-23T07:55:51.024Z,961.00
2019-01-23T07:56:50.931Z,960.98
2019-01-23T07:57:50.838Z,960.99
2019-01-23T07:58:50.748Z,960.99
2019-01-23T07:59:50.658Z,960.97
2019-01-23T08:00:50.563Z,960.98
2019-01-23T08:01:50.475Z,960.97
2019-01-23T08:02:50.383Z,960.95
2019-01-23T08:03:50.291Z,960.92
2019-01-23T08:04:50.200Z,960.89
2019-01-23T08:05:50.106Z,960.92
2019-01-23T08:06:50.016Z,960.91
2019-01-23T08:07:49.931Z,960.87
2019-01-23T08:08:49.834Z,960.88
2019-01-23T08:09:49.741Z,960.88
2019-01-23T08:10:49.655Z,960.89
2019-01-23T08:11:49.562Z,960.87
2019-01-23T08:12:49.468Z,960.88
2019-01-23T08:13:49.447Z,960.86
2019-01-23T08:14:49.287Z,960.85
2019-01-23T08:15:49.195Z,960.89
2019-01-23T08:16:49.113Z,960.86
2019-01-23T08:17:49.014Z,960.86
2019-01-23T08:18:48.925Z,960.83
2019-01-23T08:19:48.830Z,960.84
2019-01-23T08:20:48.745Z,960.84
2019-01-23T08:21:48.647Z,960.88
2019-01-23T08:22:48.556Z,960.82
2019-01-23T08:23:48.464Z,960.82
2019-01-23T08:24:48.374Z,960.85
2019-01-23T08:25:48.280Z,960.85
2019-01-23T08:26:48.196Z,960.81
2019-01-23T08:27:48.102Z,960.81
2019-01-23T08:28:48.010Z,960.84
2019-01-23T08:29:47.918Z,960.87
2019-01-23T08:30:47.827Z,960.82
2019-01-23T08:31:47.733Z,960.83
2019-01-23T08:32:47.645Z,960.82
2019-01-23T08:33:47.550Z,960.80
2019-01-23T08:34:47.460Z,960.78
2019-01-23T08:35:47.369Z,960.81
2019-01-23T08:36:47.277Z,960.75
2019-01-23T08:37:47.184Z,960.75
2019-01-23T08:38:47.100Z,960.74
2019-01-23T08:39:47.005Z,960.77
2019-01-23T08:40:46.913Z,960.75
2019-01-23T08:41:46.820Z,960.77
2019-01-23T08:42:46.734Z,960.77
2019-01-23T08:43:46.685Z,960.76
2019-01-23T08:44:46.547Z,960.78
2019-01-23T08:45:46.458Z,960.74
2019-01-23T08:46:46.364Z,960.72
2019-01-23T08:47:46.280Z,960.70
2019-01-23T08:48:46.183Z,960.68
2019-01-23T08:49:46.091Z,960.67
2019-01-23T08:50:46.001Z,960.70
2019-01-23T08:51:45.908Z,960.66
2019-01-23T08:52:45.818Z,960.72
2019-01-23T08:53:45.724Z,960.67
2019-01-23T08:54:45.635Z,960.66
2019-01-23T08:55:45.547Z,960.64
2019-01-23T08:56:45.457Z,960.64
2019-01-23T08:57:45.360Z,960.66
2019-01-23T08:58:45.291Z,960.67
2019-01-23T08:59:45.177Z,960.65
2019-01-23T09:00:46.040Z,960.66
2019-01-23T09:01:44.993Z,960.66
2019-01-23T09:02:44.904Z,960.65
2019-01-23T09:03:44.819Z,960.65
2019-01-23T09:04:45.565Z,960.63
2019-01-23T09:05:44.638Z,960.60
2019-01-23T09:06:44.552Z,960.63
2019-01-23T09:07:44.467Z,960.64
2019-01-23T09:08:44.357Z,960.60
2019-01-23T09:09:44.265Z,960.60
2019-01-23T09:10:44.174Z,960.62
2019-01-23T09:11:44.080Z,960.62
2019-01-23T09:12:43.992Z,960.62
2019-01-23T09:13:43.903Z,960.63
2019-01-23T09:14:43.826Z,960.63
2019-01-23T09:15:43.720Z,960.61
2019-01-23T09:16:43.625Z,960.63
2019-01-23T09:17:43.537Z,960.63
2019-01-23T09:18:43.444Z,960.60
2019-01-23T09:19:43.354Z,960.59
2019-01-23T09:20:43.262Z,960.60
2019-01-23T09:21:43.171Z,960.56
2019-01-23T09:22:43.099Z,960.60
2019-01-23T09:23:43.013Z,960.60
2019-01-23T09:24:42.899Z,960.60
2019-01-23T09:25:49.516Z,960.60
2019-01-23T09:26:42.715Z,960.60
2019-01-23T09:27:42.624Z,960.58
2019-01-23T09:28:42.537Z,960.58
2019-01-23T09:29:42.442Z,960.56
2019-01-23T09:30:42.375Z,960.56
2019-01-23T09:31:42.273Z,960.55
2019-01-23T09:32:42.171Z,960.57
2019-01-23T09:33:42.082Z,960.55
2019-01-23T09:34:41.989Z,960.56
2019-01-23T09:35:41.898Z,960.50
2019-01-23T09:36:41.809Z,960.53
2019-01-23T09:37:41.719Z,960.45
2019-01-23T09:38:41.628Z,960.45
2019-01-23T09:39:41.536Z,960.48
2019-01-23T09:40:41.444Z,960.50
2019-01-23T09:41:41.353Z,960.47
2019-01-23T09:42:41.264Z,960.47
2019-01-23T09:43:41.178Z,960.47
2019-01-23T09:44:41.099Z,960.43
2019-01-23T09:45:40.994Z,960.44
2019-01-23T09:46:40.900Z,960.47
2019-01-23T09:47:40.809Z,960.41
2019-01-23T09:48:40.722Z,960.40
2019-01-23T09:49:40.629Z,960.42
2019-01-23T09:50:40.624Z,960.42
2019-01-23T09:51:40.447Z,960.42
2019-01-23T09:52:40.360Z,960.40
2019-01-23T09:53:40.266Z,960.37
2019-01-23T09:54:40.176Z,960.37
2019-01-23T09:55:40.083Z,960.41
2019-01-23T09:56:40.000Z,960.38
2019-01-23T09:57:39.903Z,960.33
2019-01-23T09:58:39.811Z,960.36
2019-01-23T09:59:39.722Z,960.34
2019-01-23T10:00:39.633Z,960.29
2019-01-23T10:01:39.544Z,960.36
2019-01-23T10:02:39.451Z,960.31
2019-01-23T10:03:39.361Z,960.30
2019-01-23T10:04:39.271Z,960.27
2019-01-23T10:05:39.178Z,960.26
2019-01-23T10:06:39.102Z,960.27
2019-01-23T10:07:38.998Z,960.22
2019-01-23T10:08:38.909Z,960.25
2019-01-23T10:09:38.816Z,960.21
2019-01-23T10:10:38.726Z,960.23
2019-01-23T10:11:38.638Z,960.24
2019-01-23T10:12:38.548Z,960.24
2019-01-23T10:13:38.454Z,960.25
2019-01-23T10:14:38.756Z,960.25
2019-01-23T10:15:38.275Z,960.26
2019-01-23T10:16:38.185Z,960.26
2019-01-23T10:17:38.097Z,960.20
2019-01-23T10:18:38.003Z,960.23
2019-01-23T10:19:37.913Z,960.19
2019-01-23T10:20:37.829Z,960.19
2019-01-23T10:21:37.732Z,960.24
2019-01-23T10:22:37.642Z,960.22
2019-01-23T10:23:37.553Z,960.18
2019-01-23T10:24:37.471Z,960.17
2019-01-23T10:25:37.370Z,960.15
2019-01-23T10:26:37.299Z,960.16
2019-01-23T10:27:37.203Z,960.15
2019-01-23T10:28:37.102Z,960.12
2019-01-23T10:29:37.026Z,960.13
2019-01-23T10:30:36.921Z,960.12
2019-01-23T10:31:36.832Z,960.13
2019-01-23T10:32:36.740Z,960.14
2019-01-23T10:33:36.651Z,960.13
2019-01-23T10:34:36.561Z,960.11
2019-01-23T10:35:36.469Z,960.12
2019-01-23T10:36:36.379Z,960.08
2019-01-23T10:37:36.287Z,960.09
2019-01-23T10:38:36.199Z,960.09
2019-01-23T10:39:36.132Z,960.09
2019-01-23T10:40:36.020Z,960.12
2019-01-23T10:41:35.930Z,960.09
2019-01-23T10:42:35.837Z,960.06
2019-01-23T10:43:35.749Z,960.04
2019-01-23T10:44:35.696Z,960.06
2019-01-23T10:45:35.590Z,960.03
2019-01-23T10:46:35.477Z,960.03
2019-01-23T10:47:35.387Z,960.08
2019-01-23T10:48:38.111Z,960.05
2019-01-23T10:49:35.207Z,960.02
2019-01-23T10:50:35.114Z,960.02
2019-01-23T10:51:35.026Z,959.97
2019-01-23T10:52:34.935Z,959.97
2019-01-23T10:53:34.844Z,959.98
2019-01-23T10:54:34.754Z,959.97
2019-01-23T10:55:34.666Z,959.96
2019-01-23T10:56:34.573Z,959.94
2019-01-23T10:57:34.492Z,959.92
2019-01-23T10:58:34.391Z,959.89
2019-01-23T10:59:34.302Z,959.89
2019-01-23T11:00:34.213Z,959.90
2019-01-23T11:01:34.119Z,959.88
2019-01-23T11:02:34.033Z,959.86
2019-01-23T11:03:33.940Z,959.84
2019-01-23T11:04:33.850Z,959.84
2019-01-23T11:05:33.759Z,959.80
2019-01-23T11:06:33.669Z,959.86
2019-01-23T11:07:33.578Z,959.85
2019-01-23T11:08:33.491Z,959.84
2019-01-23T11:09:33.406Z,959.79
2019-01-23T11:10:33.371Z,959.80
2019-01-23T11:11:33.218Z,959.78
2019-01-23T11:12:33.126Z,959.78
2019-01-23T11:13:33.035Z,959.77
2019-01-23T11:14:32.955Z,959.81
2019-01-23T11:15:32.855Z,959.79
2019-01-23T11:16:32.770Z,959.80
2019-01-23T11:17:32.675Z,959.79
2019-01-23T11:18:32.582Z,959.84
2019-01-23T11:19:32.519Z,959.79
2019-01-23T11:20:32.402Z,959.78
2019-01-23T11:21:32.311Z,959.80
2019-01-23T11:22:32.224Z,959.73
2019-01-23T11:23:32.133Z,959.77
2019-01-23T11:24:32.042Z,959.78
2019-01-23T11:25:31.952Z,959.76
2019-01-23T11:26:31.861Z,959.82
2019-01-23T11:27:31.772Z,959.77
2019-01-23T11:28:31.680Z,959.77
2019-01-23T11:29:31.590Z,959.76
2019-01-23T11:30:31.498Z,959.69
2019-01-23T11:31:31.410Z,959.68
2019-01-23T11:32:31.320Z,959.67
2019-01-23T11:33:31.231Z,959.68
2019-01-23T11:34:31.139Z,959.65
2019-01-23T11:35:31.050Z,959.69
2019-01-23T11:36:30.959Z,959.60
2019-01-23T11:37:30.870Z,959.59
2019-01-23T11:38:30.788Z,959.61
2019-01-23T11:39:30.688Z,959.59
2019-01-23T11:40:30.597Z,959.57
2019-01-23T11:41:30.509Z,959.55
2019-01-23T11:42:30.417Z,959.53
2019-01-23T11:43:30.330Z,959.53
2019-01-23T11:44:30.250Z,959.51
2019-01-23T11:45:30.146Z,959.53
2019-01-23T11:46:30.057Z,959.53
2019-01-23T11:47:29.966Z,959.49
2019-01-23T11:48:29.877Z,959.50
2019-01-23T11:49:29.785Z,959.46
2019-01-23T11:50:29.716Z,959.49
2019-01-23T11:51:29.617Z,959.48
2019-01-23T11:52:29.525Z,959.45
2019-01-23T11:53:29.429Z,959.45
2019-01-23T11:54:29.337Z,959.46
2019-01-23T11:55:29.244Z,959.45
2019-01-23T11:56:29.185Z,959.45
2019-01-23T11:57:29.132Z,959.46
2019-01-23T11:58:28.975Z,959.45
2019-01-23T11:59:28.885Z,959.45
2019-01-23T12:00:28.800Z,959.46
2019-01-23T12:01:28.703Z,959.46
2019-01-23T12:02:30.833Z,959.47
2019-01-23T12:03:28.528Z,959.44
2019-01-23T12:04:28.437Z,959.44
2019-01-23T12:05:28.348Z,959.42
2019-01-23T12:06:28.256Z,959.45
2019-01-23T12:07:28.169Z,959.42
2019-01-23T12:08:28.076Z,959.46
2019-01-23T12:09:27.989Z,959.47
2019-01-23T12:10:27.898Z,959.46
2019-01-23T12:11:27.806Z,959.46
2019-01-23T12:12:27.718Z,959.41
2019-01-23T12:13:27.625Z,959.42
2019-01-23T12:14:27.537Z,959.38
2019-01-23T12:15:27.454Z,959.42
2019-01-23T12:16:27.359Z,959.39
2019-01-23T12:17:27.265Z,959.40
2019-01-23T12:18:27.184Z,959.38
2019-01-23T12:19:27.088Z,959.39
2019-01-23T12:20:26.996Z,959.40
2019-01-23T12:21:26.908Z,959.42
2019-01-23T12:22:26.820Z,959.43
2019-01-23T12:23:26.728Z,959.37
2019-01-23T12:24:26.651Z,959.39
2019-01-23T12:25:26.548Z,959.37
2019-01-23T12:26:26.460Z,959.35
2019-01-23T12:27:26.370Z,959.33
2019-01-23T12:28:26.280Z,959.37
2019-01-23T12:29:26.195Z,959.33
2019-01-23T12:30:26.099Z,959.30
2019-01-23T12:31:26.013Z,959.34
2019-01-23T12:32:25.919Z,959.31
2019-01-23T12:33:25.831Z,959.33
2019-01-23T12:34:25.748Z,959.31
2019-01-23T12:35:25.653Z,959.37
2019-01-23T12:36:25.565Z,959.36
2019-01-23T12:37:25.472Z,959.35
2019-01-23T12:38:25.382Z,959.33
2019-01-23T12:39:25.293Z,959.34